Time;durP1;ratioP1;P1;durP2;ratioP2;P2;SDS_P1;SDS_P2;PMS_P1;PMS_P2;Temp;Humidity;BMP_temperature;BMP_pressure;BME280_temperature;BME280_humidity;BME280_pressure;Samples;Min_cycle;Max_cycle;Signal;HPM_P1;HPM_P2
2022/10/06 00:00:37;;;;;;;4.15;2.55;;;;;;;9.42;90.73;98774.94;1746943;82;21384;-60
2022/10/06 00:03:04;;;;;;;5.85;2.10;;;;;;;9.39;90.81;98774.14;1746696;82;21069;-60
2022/10/06 00:05:31;;;;;;;4.25;2.25;;;;;;;9.37;90.94;98776.81;1746633;82;20913;-60
2022/10/06 00:07:59;;;;;;;3.75;2.15;;;;;;;9.35;90.99;98772.27;1746613;82;20878;-59
2022/10/06 00:10:26;;;;;;;3.15;2.00;;;;;;;9.30;91.11;98773.58;1746699;82;20932;-60
2022/10/06 00:12:53;;;;;;;6.42;2.30;;;;;;;9.24;91.39;98768.74;1746726;82;20940;-60
2022/10/06 00:15:23;;;;;;;5.72;4.30;;;;;;;9.22;91.50;98770.88;1746705;82;21110;-60
2022/10/06 00:17:49;;;;;;;4.37;2.50;;;;;;;9.21;91.53;98765.80;1746907;82;20924;-59
2022/10/06 00:20:17;;;;;;;8.05;3.35;;;;;;;9.18;91.58;98765.80;1746706;82;20889;-59
2022/10/06 00:22:47;;;;;;;5.60;2.90;;;;;;;9.16;91.69;98764.45;1746562;82;20976;-59
2022/10/06 00:25:17;;;;;;;4.25;2.80;;;;;;;9.12;91.82;98764.15;1746843;82;20902;-58
2022/10/06 00:27:48;;;;;;;3.08;1.87;;;;;;;9.11;92.02;98761.23;1746696;82;21118;-59
2022/10/06 00:30:19;;;;;;;4.08;2.42;;;;;;;9.10;92.17;98760.13;1746537;82;20940;-58
2022/10/06 00:32:59;;;;;;;3.85;2.50;;;;;;;9.07;92.17;98756.11;1746156;82;20941;-60
2022/10/06 00:35:33;;;;;;;5.17;2.65;;;;;;;9.05;92.21;98752.91;1746930;82;20969;-60
2022/10/06 00:38:00;;;;;;;7.17;2.33;;;;;;;9.01;92.34;98749.16;1746633;82;20925;-61
2022/10/06 00:40:27;;;;;;;4.15;2.30;;;;;;;8.99;92.36;98756.63;1746677;82;21077;-59
2022/10/06 00:43:00;;;;;;;3.02;2.10;;;;;;;8.97;92.45;98748.08;1746505;82;20939;-59
2022/10/06 00:45:42;;;;;;;3.35;2.33;;;;;;;8.98;92.47;98748.33;1746651;80;20916;-60
2022/10/06 00:48:22;;;;;;;3.75;2.33;;;;;;;8.98;92.51;98748.33;1746172;82;21416;-60
2022/10/06 00:50:53;;;;;;;3.60;2.30;;;;;;;8.98;92.58;98742.98;1746622;82;20929;-60
2022/10/06 00:53:20;;;;;;;3.20;2.08;;;;;;;8.96;92.69;98737.11;1746584;82;21127;-59
2022/10/06 00:55:46;;;;;;;3.60;2.15;;;;;;;8.94;92.54;98736.56;1746615;82;20913;-60
2022/10/06 00:58:13;;;;;;;5.50;2.20;;;;;;;8.91;92.59;98739.75;1746784;82;21509;-60
2022/10/06 01:00:42;;;;;;;3.67;2.20;;;;;;;8.90;92.75;98731.48;1746567;82;20901;-60
2022/10/06 01:03:16;;;;;;;5.53;2.27;;;;;;;8.92;92.83;98737.36;1746865;82;20869;-59
2022/10/06 01:05:47;;;;;;;6.05;2.72;;;;;;;8.92;92.79;98734.16;1746774;82;21190;-60
2022/10/06 01:08:14;;;;;;;4.97;2.30;;;;;;;8.95;92.70;98735.48;1746873;82;20989;-59
2022/10/06 01:10:42;;;;;;;5.62;2.12;;;;;;;8.90;92.56;98728.81;1746656;82;21059;-60
2022/10/06 01:13:10;;;;;;;7.97;2.25;;;;;;;8.86;92.55;98729.05;1746646;82;20886;-59
2022/10/06 01:15:45;;;;;;;4.55;2.02;;;;;;;8.84;92.63;98725.30;1746952;82;20897;-60
2022/10/06 01:18:15;;;;;;;4.45;2.00;;;;;;;8.83;92.65;98721.57;1746801;82;21249;-60
2022/10/06 01:20:52;;;;;;;5.30;2.20;;;;;;;8.82;92.66;98730.63;1746500;82;20846;-60
2022/10/06 01:23:19;;;;;;;3.65;2.10;;;;;;;8.82;92.59;98731.97;1746681;82;21376;-61
2022/10/06 01:25:45;;;;;;;4.72;2.00;;;;;;;8.85;92.40;98738.14;1746608;82;20968;-60
2022/10/06 01:28:12;;;;;;;3.75;1.95;;;;;;;8.84;92.50;98731.17;1746674;82;21031;-60
2022/10/06 01:30:49;;;;;;;2.25;1.72;;;;;;;8.85;92.48;98732.80;1746649;82;21199;-59
2022/10/06 01:33:16;;;;;;;4.87;2.00;;;;;;;8.82;92.41;98727.97;1746494;82;20913;-59
2022/10/06 01:35:47;;;;;;;3.33;1.87;;;;;;;8.84;92.44;98733.84;1746459;82;20928;-59
2022/10/06 01:38:14;;;;;;;4.72;2.02;;;;;;;8.85;92.22;98724.78;1746782;82;21541;-60
2022/10/06 01:40:41;;;;;;;3.20;2.10;;;;;;;8.85;92.09;98719.44;1746768;82;21415;-60
2022/10/06 01:43:07;;;;;;;2.80;1.90;;;;;;;8.87;91.72;98722.13;1746562;82;21203;-60
2022/10/06 01:45:34;;;;;;;5.53;2.20;;;;;;;8.94;91.39;98725.88;1746457;82;20909;-59
2022/10/06 01:48:01;;;;;;;2.92;1.77;;;;;;;8.96;91.07;98726.42;1746526;82;20905;-58
2022/10/06 01:50:30;;;;;;;4.60;1.77;;;;;;;9.00;90.89;98721.37;1746619;82;20937;-59
2022/10/06 01:52:56;;;;;;;5.28;1.60;;;;;;;9.03;90.45;98717.62;1746760;82;21466;-60
2022/10/06 01:55:24;;;;;;;2.58;1.57;;;;;;;9.07;90.16;98720.59;1746524;82;21118;-59
2022/10/06 01:57:52;;;;;;;6.80;1.90;;;;;;;9.12;89.96;98721.91;1746451;82;20929;-59
2022/10/06 02:00:19;;;;;;;9.48;6.30;;;;;;;9.14;89.78;98722.48;1746827;82;21447;-58
2022/10/06 02:02:46;;;;;;;4.55;2.00;;;;;;;9.12;89.49;98718.72;1746603;82;20968;-60
2022/10/06 02:05:14;;;;;;;3.02;1.90;;;;;;;9.11;89.40;98715.79;1746599;82;20948;-60
2022/10/06 02:07:43;;;;;;;6.17;1.70;;;;;;;9.08;89.31;98713.64;1746252;82;21992;-59
2022/10/06 02:10:13;;;;;;;3.70;1.77;;;;;;;9.04;89.27;98723.25;1746517;82;21436;-60
2022/10/06 02:12:40;;;;;;;3.90;1.82;;;;;;;9.00;89.37;98715.47;1746509;82;20878;-59
2022/10/06 02:15:10;;;;;;;4.28;1.85;;;;;;;8.95;89.43;98716.78;1746495;82;20921;-58
2022/10/06 02:17:38;;;;;;;4.85;1.92;;;;;;;8.90;89.62;98723.47;1746523;82;21385;-59
2022/10/06 02:20:06;;;;;;;4.65;2.00;;;;;;;8.90;89.68;98722.13;1746516;82;21123;-59
2022/10/06 02:22:39;;;;;;;5.97;2.35;;;;;;;8.86;89.66;98726.37;1746442;82;21427;-59
2022/10/06 02:25:08;;;;;;;5.83;2.62;;;;;;;8.81;89.86;98717.00;1746487;82;20849;-58
2022/10/06 02:27:37;;;;;;;7.53;2.37;;;;;;;8.79;90.03;98724.47;1746494;82;20929;-59
2022/10/06 02:30:06;;;;;;;3.77;1.95;;;;;;;8.76;90.16;98722.34;1746591;82;20933;-60
2022/10/06 02:32:36;;;;;;;2.85;2.27;;;;;;;8.75;90.19;98727.40;1746579;82;21216;-58
2022/10/06 02:35:07;;;;;;;4.87;2.52;;;;;;;8.74;90.17;98727.11;1746437;82;20932;-60
2022/10/06 02:37:34;;;;;;;11.33;2.70;;;;;;;8.71;90.19;98716.97;1746766;82;21483;-60
2022/10/06 02:40:01;;;;;;;5.85;2.90;;;;;;;8.66;90.27;98723.62;1746699;82;21420;-61
2022/10/06 02:42:29;;;;;;;8.75;3.25;;;;;;;8.61;90.38;98720.92;1746571;82;20972;-59
2022/10/06 02:44:57;;;;;;;5.55;2.90;;;;;;;8.56;90.53;98719.55;1746588;82;21072;-61
2022/10/06 02:47:24;;;;;;;3.65;2.33;;;;;;;8.52;90.74;98723.81;1746628;82;20936;-61
2022/10/06 02:49:53;;;;;;;6.30;2.37;;;;;;;8.48;90.92;98724.84;1746484;82;20972;-61
2022/10/06 02:52:20;;;;;;;6.37;2.55;;;;;;;8.49;91.08;98731.00;1746568;82;20905;-60
2022/10/06 02:54:49;;;;;;;3.65;1.80;;;;;;;8.46;91.15;98722.16;1746618;82;20889;-61
2022/10/06 02:57:16;;;;;;;2.90;1.82;;;;;;;8.45;91.32;98726.72;1746492;82;21118;-61
2022/10/06 02:59:43;;;;;;;3.02;1.80;;;;;;;8.49;91.45;98728.33;1746490;82;20940;-60
2022/10/06 03:02:10;;;;;;;4.65;1.98;;;;;;;8.53;91.47;98726.73;1746698;82;21396;-61
2022/10/06 03:04:37;;;;;;;2.80;1.80;;;;;;;8.57;91.49;98731.30;1746439;82;20893;-61
2022/10/06 03:07:04;;;;;;;3.40;1.80;;;;;;;8.60;91.52;98728.65;1746617;82;20979;-60
2022/10/06 03:09:34;;;;;;;3.10;1.87;;;;;;;8.63;91.48;98716.93;1746487;82;21954;-61
2022/10/06 03:12:01;;;;;;;2.92;1.70;;;;;;;8.66;91.40;98727.63;1746416;82;20889;-60
2022/10/06 03:14:30;;;;;;;1.82;1.52;;;;;;;8.66;91.30;98723.62;1745990;82;20885;-61
2022/10/06 03:16:57;;;;;;;4.62;1.70;;;;;;;8.67;91.30;98717.20;1746536;82;20936;-60
2022/10/06 03:19:25;;;;;;;3.50;2.10;;;;;;;8.69;91.30;98723.11;1746600;82;20992;-61
2022/10/06 03:21:52;;;;;;;3.55;2.08;;;;;;;8.72;91.21;98721.23;1746687;82;21927;-61
2022/10/06 03:24:20;;;;;;;4.62;2.40;;;;;;;8.68;91.13;98717.48;1746409;82;20957;-60
2022/10/06 03:26:49;;;;;;;4.15;1.95;;;;;;;8.70;91.14;98726.03;1746568;82;21009;-62
2022/10/06 03:29:17;;;;;;;5.00;2.12;;;;;;;8.69;91.14;98721.78;1746517;82;20865;-59
2022/10/06 03:31:46;;;;;;;7.90;1.87;;;;;;;8.71;91.08;98722.31;1746427;82;20960;-60
2022/10/06 03:34:13;;;;;;;3.02;1.70;;;;;;;8.74;91.12;98727.11;1746561;82;21651;-60
2022/10/06 03:36:41;;;;;;;4.12;1.72;;;;;;;8.79;91.02;98721.27;1746737;82;21380;-60
2022/10/06 03:39:07;;;;;;;5.53;1.85;;;;;;;8.84;90.84;98726.64;1747107;82;20877;-61
2022/10/06 03:41:36;;;;;;;6.50;2.40;;;;;;;8.82;90.71;98719.95;1746614;82;20925;-59
2022/10/06 03:44:04;;;;;;;4.05;2.20;;;;;;;8.80;90.71;98724.75;1746544;82;20992;-61
2022/10/06 03:46:34;;;;;;;4.70;1.98;;;;;;;8.79;90.72;98725.28;1746587;82;21329;-61
2022/10/06 03:49:01;;;;;;;2.25;1.50;;;;;;;8.79;90.71;98725.80;1746646;82;20929;-61
2022/10/06 03:51:33;;;;;;;2.92;1.60;;;;;;;8.81;90.80;98734.36;1746623;82;20853;-60
2022/10/06 03:54:00;;;;;;;4.58;1.95;;;;;;;8.87;90.72;98732.81;1746944;82;21020;-61
2022/10/06 03:56:30;;;;;;;3.47;2.10;;;;;;;8.93;90.50;98730.41;1746618;82;20850;-60
2022/10/06 03:59:01;;;;;;;2.83;1.77;;;;;;;8.95;90.30;98738.16;1746614;82;21121;-60
2022/10/06 04:01:37;;;;;;;2.85;1.95;;;;;;;8.97;90.23;98736.05;1746645;82;20846;-60
2022/10/06 04:04:04;;;;;;;3.02;1.77;;;;;;;8.97;90.14;98742.73;1746553;82;20968;-58
2022/10/06 04:06:33;;;;;;;4.80;1.70;;;;;;;8.92;89.94;98740.84;1746616;82;20956;-58
2022/10/06 04:09:04;;;;;;;3.80;2.00;;;;;;;8.91;90.06;98734.41;1746976;82;21003;-59
2022/10/06 04:11:33;;;;;;;2.42;1.67;;;;;;;8.95;90.07;98740.83;1746691;82;21225;-62
2022/10/06 04:14:03;;;;;;;3.15;2.00;;;;;;;8.99;90.14;98736.59;1746537;82;20873;-60
2022/10/06 04:16:37;;;;;;;3.10;1.90;;;;;;;9.01;89.94;98739.80;1746702;82;20949;-59
2022/10/06 04:19:08;;;;;;;2.83;1.80;;;;;;;9.01;89.76;98739.80;1746661;82;20921;-58
2022/10/06 04:21:39;;;;;;;3.33;1.70;;;;;;;8.97;89.59;98733.38;1746705;82;20929;-62
2022/10/06 04:24:09;;;;;;;3.98;1.70;;;;;;;8.94;89.75;98740.05;1746709;82;21252;-59
2022/10/06 04:26:47;;;;;;;4.97;2.00;;;;;;;8.93;89.78;98736.28;1746480;82;20932;-58
2022/10/06 04:29:12;;;;;;;4.23;2.20;;;;;;;8.92;89.73;98738.70;1745732;82;20889;-61
2022/10/06 04:31:39;;;;;;;5.92;2.02;;;;;;;8.90;89.90;98746.17;1746557;82;20936;-60
2022/10/06 04:34:09;;;;;;;5.30;2.20;;;;;;;8.90;89.98;98757.64;1746435;82;21467;-59
2022/10/06 04:36:39;;;;;;;7.87;2.10;;;;;;;8.89;89.97;98756.05;1723896;82;21748;-61
2022/10/06 04:39:10;;;;;;;5.47;2.00;;;;;;;8.88;90.04;98755.77;1746519;82;20861;-61
2022/10/06 04:41:40;;;;;;;3.42;1.90;;;;;;;8.88;90.09;98756.30;1746669;82;20850;-59
2022/10/06 04:44:09;;;;;;;4.97;2.00;;;;;;;8.86;90.28;98749.08;1705496;83;20896;-61
2022/10/06 04:46:37;;;;;;;4.67;2.17;;;;;;;8.85;90.60;98754.17;1715881;83;21475;-59
2022/10/06 04:49:04;;;;;;;4.12;1.98;;;;;;;8.88;90.70;98753.63;1778302;80;21229;-60
2022/10/06 04:51:32;;;;;;;7.55;1.87;;;;;;;8.91;90.80;98757.12;1778220;80;21025;-57
2022/10/06 04:54:01;;;;;;;4.60;1.95;;;;;;;8.95;90.80;98755.00;1778279;80;20934;-58
2022/10/06 04:56:30;;;;;;;5.55;2.10;;;;;;;9.00;90.66;98756.88;1745924;80;20912;-58
2022/10/06 04:58:58;;;;;;;5.03;2.77;;;;;;;9.08;90.70;98757.73;1777934;80;20895;-61
2022/10/06 05:01:28;;;;;;;7.75;2.80;;;;;;;9.16;90.69;98766.56;1759036;79;21093;-60
2022/10/06 05:03:57;;;;;;;5.17;3.33;;;;;;;9.30;90.44;98762.33;1777399;79;20934;-58
2022/10/06 05:06:33;;;;;;;4.12;1.95;;;;;;;9.43;90.26;98756.50;1781640;79;20997;-58
2022/10/06 05:09:08;;;;;;;5.03;1.80;;;;;;;9.55;89.73;98762.41;1811118;79;20999;-60
2022/10/06 05:11:38;;;;;;;5.12;2.72;;;;;;;9.74;89.19;98756.55;1792154;79;20848;-58
2022/10/06 05:14:06;;;;;;;7.40;5.15;;;;;;;9.91;88.10;98762.45;1776944;80;21156;-61
2022/10/06 05:16:36;;;;;;;6.65;3.75;;;;;;;10.10;87.75;98765.65;1762946;80;21093;-61
2022/10/06 05:19:05;;;;;;;6.65;2.72;;;;;;;10.25;86.90;98771.56;1763322;79;20951;-61
2022/10/06 05:21:38;;;;;;;6.92;3.72;;;;;;;10.38;86.11;98765.68;1737836;80;21152;-60
2022/10/06 05:24:03;;;;;;;13.65;1.92;;;;;;;10.51;85.51;98759.75;1747821;80;20993;-59
2022/10/06 05:26:32;;;;;;;8.20;3.77;;;;;;;10.64;84.81;98769.92;1748468;80;21663;-60
2022/10/06 05:29:01;;;;;;;8.68;4.90;;;;;;;10.75;84.05;98763.45;1749985;80;21129;-59
2022/10/06 05:31:31;;;;;;;3.47;1.98;;;;;;;10.86;83.31;98766.36;1774984;80;20940;-59
2022/10/06 05:34:00;;;;;;;4.15;1.80;;;;;;;10.96;82.66;98771.70;1780270;80;20882;-61
2022/10/06 05:36:32;;;;;;;5.55;2.50;;;;;;;11.06;82.21;98765.50;1780100;80;21008;-60
2022/10/06 05:39:00;;;;;;;6.17;2.65;;;;;;;11.15;81.87;98773.23;1764882;80;21157;-65
2022/10/06 05:41:31;;;;;;;3.05;1.45;;;;;;;11.22;81.44;98778.28;1778893;79;20955;-62
2022/10/06 05:43:59;;;;;;;3.83;1.45;;;;;;;11.28;80.73;98766.48;1766602;80;20879;-61
2022/10/06 05:46:28;;;;;;;4.05;1.60;;;;;;;11.37;80.19;98776.88;1755605;77;21399;-59
2022/10/06 05:49:03;;;;;;;4.85;2.10;;;;;;;11.46;79.23;98776.56;1805223;77;20907;-59
2022/10/06 05:51:34;;;;;;;3.20;1.62;;;;;;;11.58;78.75;98774.35;1803858;77;21086;-60
2022/10/06 05:54:03;;;;;;;4.42;2.27;;;;;;;11.68;78.02;98781.81;1792221;79;20836;-58
2022/10/06 05:56:33;;;;;;;3.45;1.85;;;;;;;11.79;77.38;98789.28;1814594;77;20902;-60
2022/10/06 05:59:01;;;;;;;3.33;1.47;;;;;;;11.88;76.38;98788.94;1816224;78;20903;-60
2022/10/06 06:01:39;;;;;;;5.03;1.40;;;;;;;11.96;75.75;98792.39;1807103;77;20958;-62
2022/10/06 06:04:10;;;;;;;11.10;6.90;;;;;;;12.04;75.88;98793.12;1799948;77;21739;-61
2022/10/06 06:06:44;;;;;;;13.03;2.10;;;;;;;12.10;75.80;98790.67;1792062;79;20950;-61
2022/10/06 06:09:17;;;;;;;3.15;2.22;;;;;;;12.18;75.27;98804.83;1794810;77;21128;-58
2022/10/06 06:11:52;;;;;;;5.90;2.20;;;;;;;12.27;75.39;98800.45;1787411;77;21081;-57
2022/10/06 06:15:59;;;;;;;3.40;1.87;;;;;;;12.36;75.39;98801.44;1785148;79;21067;-61
2022/10/06 06:16:52;;;;;;;2.92;1.72;;;;;;;12.45;74.68;98812.41;1785178;79;21201;-59
2022/10/06 06:19:21;;;;;;;3.60;2.55;;;;;;;12.52;73.80;98817.44;1813872;77;21216;-59
2022/10/06 06:21:49;;;;;;;;;;;;;;;12.61;72.96;98807.68;1813903;77;32788;-60
2022/10/06 06:24:16;;;;;;;4.30;1.90;;;;;;;12.66;72.70;98809.78;1814766;78;20167;-60
2022/10/06 06:26:43;;;;;;;2.50;1.30;;;;;;;12.74;73.46;98805.69;1806964;77;21045;-59
2022/10/06 06:29:10;;;;;;;4.08;1.77;;;;;;;12.79;72.92;98813.13;1787845;79;21084;-61
2022/10/06 06:31:44;;;;;;;4.33;1.80;;;;;;;12.85;72.52;98812.02;1794905;77;20966;-61
2022/10/06 06:34:12;;;;;;;4.05;1.70;;;;;;;12.93;71.61;98821.35;1826628;77;21079;-63
2022/10/06 06:36:43;;;;;;;4.62;1.37;;;;;;;13.02;71.78;98819.06;1804088;78;21063;-62
2022/10/06 06:39:13;;;;;;;4.62;2.37;;;;;;;13.11;70.69;98821.98;1806914;77;20934;-59
2022/10/06 06:41:47;;;;;;;3.08;1.52;;;;;;;13.21;70.94;98819.19;1794707;79;20982;-66
2022/10/06 06:44:33;;;;;;;3.77;1.45;;;;;;;13.30;69.42;98828.22;1789276;78;20915;-62
2022/10/06 06:47:05;;;;;;;3.92;1.67;;;;;;;13.42;69.10;98826.45;1791457;78;21291;-62
2022/10/06 06:49:31;;;;;;;2.77;1.60;;;;;;;13.49;69.17;98823.67;1781914;78;20947;-63
2022/10/06 06:52:05;;;;;;;4.12;1.72;;;;;;;13.57;68.85;98820.33;1797119;78;21450;-65
2022/10/06 06:54:34;;;;;;;4.58;1.60;;;;;;;13.65;69.32;98828.30;1806487;78;21855;-63
2022/10/06 06:57:03;;;;;;;2.45;1.35;;;;;;;13.73;68.59;98821.48;1789209;78;21106;-63
2022/10/06 06:59:31;;;;;;;2.35;1.22;;;;;;;13.81;68.18;98832.92;1774631;79;22240;-62
2022/10/06 07:01:59;;;;;;;4.35;1.30;;;;;;;13.87;67.85;98831.78;1778896;79;20935;-60
2022/10/06 07:04:29;;;;;;;2.70;1.40;;;;;;;13.91;68.12;98829.56;1785358;77;21093;-61
2022/10/06 07:06:57;;;;;;;2.75;1.35;;;;;;;13.95;67.98;98836.49;1779174;79;21168;-59
2022/10/06 07:09:27;;;;;;;2.25;1.50;;;;;;;14.02;68.72;98834.23;1801377;78;21493;-59
2022/10/06 07:11:57;;;;;;;5.72;1.67;;;;;;;14.09;69.07;98834.13;1777968;79;21038;-60
2022/10/06 07:14:24;;;;;;;3.50;1.57;;;;;;;14.17;67.39;98834.02;1784630;79;20891;-60
2022/10/06 07:25:22;;;;;;;2.90;1.30;;;;;;;14.42;66.03;98848.46;1789794;79;20828;-64
2022/10/06 07:27:50;;;;;;;3.10;1.40;;;;;;;14.49;65.28;98835.95;1805090;79;20949;-61
2022/10/06 07:30:23;;;;;;;3.20;1.60;;;;;;;14.54;65.07;98833.17;1797787;79;20958;-60
2022/10/06 07:32:52;;;;;;;3.10;1.47;;;;;;;14.62;65.77;98839.25;1799578;78;21072;-62
2022/10/06 07:35:20;;;;;;;3.65;1.50;;;;;;;14.72;65.56;98839.86;1778242;78;21022;-61
2022/10/06 07:37:49;;;;;;;4.03;1.60;;;;;;;14.78;64.68;98835.99;1791200;79;20923;-61
2022/10/06 07:40:17;;;;;;;3.12;1.45;;;;;;;14.83;64.37;98841.30;1795374;79;20970;-61
2022/10/06 07:42:50;;;;;;;1.98;1.40;;;;;;;14.90;64.38;98840.91;1791728;79;21407;-60
2022/10/06 07:45:39;;;;;;;2.90;1.20;;;;;;;14.98;65.04;98849.64;1800448;79;21112;-61
2022/10/06 07:48:17;;;;;;;5.30;1.35;;;;;;;15.05;63.36;98848.70;1799537;78;21432;-63
2022/10/06 07:50:50;;;;;;;3.37;1.40;;;;;;;15.11;63.55;98835.92;1781293;79;20919;-64
2022/10/06 07:53:18;;;;;;;4.08;1.47;;;;;;;15.17;63.81;98853.63;1774978;79;20892;-63
2022/10/06 07:55:48;;;;;;;6.12;1.50;;;;;;;15.25;64.40;98851.58;1793693;79;20988;-60
2022/10/06 07:58:22;;;;;;;4.90;1.20;;;;;;;15.33;62.12;98844.91;1803572;79;22125;-63
2022/10/06 08:00:51;;;;;;;3.12;1.40;;;;;;;15.38;62.38;98853.48;1773526;79;20844;-62
2022/10/06 08:03:18;;;;;;;5.53;1.52;;;;;;;15.39;61.52;98863.98;1781710;78;21003;-59
2022/10/06 08:05:47;;;;;;;3.08;1.50;;;;;;;15.40;62.41;98856.69;1799317;79;20979;-71
2022/10/06 08:08:15;;;;;;;4.17;1.70;;;;;;;15.48;62.93;98861.39;1804772;79;20919;-62
2022/10/06 08:10:43;;;;;;;4.00;1.45;;;;;;;15.62;63.37;98854.08;1804951;79;21399;-65
2022/10/06 08:13:09;;;;;;;2.33;1.22;;;;;;;15.77;63.34;98855.67;1780494;79;20828;-61
2022/10/06 08:15:37;;;;;;;4.47;1.37;;;;;;;15.92;62.30;98858.83;1804601;79;20919;-61
2022/10/06 08:18:06;;;;;;;3.52;1.42;;;;;;;15.97;59.85;98853.31;1785348;78;20931;-65
2022/10/06 08:20:35;;;;;;;4.97;1.92;;;;;;;15.92;60.49;98852.65;1772041;81;20974;-66
2022/10/06 08:23:05;;;;;;;3.27;1.42;;;;;;;15.89;60.54;98854.05;1773390;81;21037;-63
2022/10/06 08:25:30;;;;;;;6.08;1.65;;;;;;;15.92;60.69;98843.97;1772882;80;20987;-60
2022/10/06 08:27:57;;;;;;;2.30;1.40;;;;;;;15.96;59.84;98854.44;1772840;79;21431;-60
2022/10/06 08:30:25;;;;;;;3.17;1.40;;;;;;;15.92;59.35;98863.45;1804703;78;20907;-64
2022/10/06 08:32:52;;;;;;;4.28;1.55;;;;;;;15.85;60.15;98855.74;1805306;79;20825;-63
2022/10/06 08:35:20;;;;;;;3.90;1.55;;;;;;;15.90;60.57;98850.23;1802708;78;21224;-60
2022/10/06 08:37:47;;;;;;;3.98;1.57;;;;;;;16.00;60.95;98859.47;1804167;79;20904;-59
2022/10/06 08:40:14;;;;;;;4.50;1.95;;;;;;;16.10;59.96;98860.60;1804695;79;21022;-61
2022/10/06 08:42:45;;;;;;;9.48;1.60;;;;;;;16.13;59.29;98861.90;1805163;79;20903;-60
2022/10/06 08:45:25;;;;;;;5.67;1.77;;;;;;;16.13;59.67;98853.22;1813181;78;20969;-55
2022/10/06 08:48:03;;;;;;;5.50;1.75;;;;;;;16.24;60.23;98855.14;1821746;78;20987;-56
2022/10/06 08:50:37;;;;;;;3.33;1.60;;;;;;;16.35;59.84;98851.89;1754256;81;20947;-56
2022/10/06 08:53:11;;;;;;;2.58;1.57;;;;;;;16.48;59.44;98854.84;1754553;81;20956;-65
2022/10/06 08:55:52;;;;;;;3.05;1.47;;;;;;;16.55;59.82;98866.06;1754918;81;21015;-57
2022/10/06 08:58:28;;;;;;;1.87;1.45;;;;;;;16.63;58.79;98857.22;1753667;81;21106;-67
2022/10/06 09:01:02;;;;;;;6.12;2.00;;;;;;;16.60;58.14;98849.72;1754475;81;22264;-56
2022/10/06 09:03:30;;;;;;;3.58;1.60;;;;;;;16.56;59.12;98856.28;1715691;83;21115;-57
2022/10/06 09:06:07;;;;;;;3.20;1.75;;;;;;;16.60;60.15;98848.36;1778414;80;21396;-57
2022/10/06 09:08:37;;;;;;;;;;;;;;;16.75;59.67;98864.20;1758283;80;21006;-56
2022/10/06 09:11:26;;;;;;;4.87;2.00;;;;;;;16.81;58.83;98861.08;1730189;82;20199;-56
2022/10/06 09:14:05;;;;;;;6.17;1.82;;;;;;;16.80;59.00;98855.41;1747185;79;20948;-56
2022/10/06 09:16:36;;;;;;;6.15;1.90;;;;;;;16.85;58.92;98856.63;1749413;81;20975;-56
2022/10/06 09:19:42;;;;;;;4.53;1.67;;;;;;;16.91;59.13;98862.14;1763868;81;20975;-57
2022/10/06 09:22:17;;;;;;;5.70;1.90;;;;;;;17.01;59.60;98867.84;1761825;80;20931;-56
2022/10/06 09:24:53;;;;;;;3.08;1.70;;;;;;;17.08;58.30;98870.36;1735403;81;20983;-56
2022/10/06 09:27:32;;;;;;;4.03;1.80;;;;;;;17.03;58.10;98862.92;1739894;81;21119;-55
2022/10/06 09:30:00;;;;;;;4.87;1.80;;;;;;;17.00;58.38;98866.27;1757884;81;21552;-56
2022/10/06 09:32:27;;;;;;;4.37;1.82;;;;;;;17.01;58.63;98863.79;1758502;81;20936;-56
2022/10/06 09:34:58;;;;;;;5.80;1.82;;;;;;;17.04;59.04;98866.69;1735347;81;20948;-56
2022/10/06 09:37:26;;;;;;;3.50;1.70;;;;;;;17.06;58.97;98869.88;1759169;81;20936;-56
2022/10/06 09:39:53;;;;;;;3.27;1.90;;;;;;;17.12;59.61;98867.84;1758779;81;21718;-56
2022/10/06 09:42:31;;;;;;;5.20;2.50;;;;;;;17.29;59.86;98863.84;1759187;81;20885;-58
2022/10/06 09:45:06;;;;;;;5.75;1.98;;;;;;;17.42;57.84;98875.13;1777011;78;20944;-56
2022/10/06 09:47:45;;;;;;;4.40;2.40;;;;;;;17.39;58.20;98870.89;1814345;79;20994;-56
2022/10/06 09:50:23;;;;;;;2.92;1.60;;;;;;;17.35;58.26;98877.50;1800769;79;21062;-55
2022/10/06 09:53:06;;;;;;;3.60;2.08;;;;;;;17.41;59.28;98858.63;1770398;80;21987;-56
2022/10/06 09:55:44;;;;;;;3.10;1.80;;;;;;;17.56;60.18;98870.43;1769309;80;20991;-59
2022/10/06 09:58:19;;;;;;;4.53;2.20;;;;;;;17.72;57.97;98870.23;1777684;78;20948;-56
2022/10/06 10:01:00;;;;;;;5.58;2.22;;;;;;;17.72;57.89;98875.65;1778797;80;21073;-56
2022/10/06 10:06:27;;;;;;;3.67;2.17;;;;;;;17.66;58.91;98872.83;1764873;80;22232;-55
2022/10/06 10:09:25;;;;;;;4.33;2.00;;;;;;;17.68;59.26;98859.79;1782947;80;21447;-55
2022/10/06 10:12:23;;;;;;;4.45;2.10;;;;;;;17.78;58.66;98864.67;1782399;80;20986;-56
2022/10/06 10:14:56;;;;;;;4.50;1.90;;;;;;;17.75;57.81;98866.90;1782449;80;20995;-58
2022/10/06 10:17:34;;;;;;;6.40;2.10;;;;;;;17.73;57.42;98866.97;1782446;80;21042;-56
2022/10/06 10:20:02;;;;;;;5.03;2.20;;;;;;;17.78;58.68;98873.02;1783553;80;21089;-55
2022/10/06 10:22:38;;;;;;;3.80;2.25;;;;;;;17.86;58.19;98873.35;1783851;79;21363;-56
2022/10/06 10:25:33;;;;;;;4.03;2.00;;;;;;;17.85;57.15;98874.48;1783840;80;20920;-58
2022/10/06 10:28:06;;;;;;;4.35;1.80;;;;;;;17.75;57.73;98870.16;1783647;80;20900;-57
2022/10/06 10:30:36;;;;;;;4.10;2.15;;;;;;;17.75;57.73;98878.28;1783544;80;20896;-58
2022/10/06 10:33:13;;;;;;;5.15;1.80;;;;;;;17.74;57.59;98878.84;1783629;80;21268;-57
2022/10/06 10:35:49;;;;;;;6.65;2.08;;;;;;;17.78;57.34;98869.53;1764279;80;20884;-60
2022/10/06 10:38:21;;;;;;;6.23;1.90;;;;;;;17.82;57.25;98865.63;1756540;80;21006;-55
2022/10/06 10:41:05;;;;;;;4.60;1.80;;;;;;;17.86;57.72;98867.38;1752849;82;20884;-65
2022/10/06 10:43:35;;;;;;;3.67;1.98;;;;;;;17.93;58.53;98876.39;1751598;82;21113;-56
2022/10/06 10:46:15;;;;;;;2.52;1.57;;;;;;;18.09;58.35;98873.48;1732907;82;21537;-56
2022/10/06 10:48:56;;;;;;;6.60;1.90;;;;;;;18.23;57.52;98870.84;1717606;82;22074;-56
2022/10/06 10:51:42;;;;;;;3.30;1.80;;;;;;;18.31;57.42;98863.83;1718038;83;20877;-57
2022/10/06 10:54:15;;;;;;;6.92;2.08;;;;;;;18.42;57.53;98867.80;1718439;83;21411;-57
2022/10/06 10:56:48;;;;;;;2.27;1.80;;;;;;;18.57;57.17;98863.84;1715984;83;21019;-59
2022/10/06 10:59:28;;;;;;;8.20;2.12;;;;;;;18.67;56.16;98873.02;1727965;83;21230;-57
2022/10/06 11:02:00;;;;;;;4.65;1.80;;;;;;;18.75;56.76;98867.56;1773910;80;21026;-58
2022/10/06 11:04:28;;;;;;;5.55;1.65;;;;;;;18.88;55.52;98869.31;1772220;80;21054;-59
2022/10/06 11:07:12;;;;;;;6.10;1.92;;;;;;;18.85;54.43;98864.52;1775461;78;21652;-57
2022/10/06 11:10:01;;;;;;;4.45;1.82;;;;;;;18.77;54.91;98862.61;1797767;79;21048;-57
2022/10/06 11:12:55;;;;;;;2.33;1.77;;;;;;;18.83;54.42;98851.03;1785327;78;21106;-57
2022/10/06 11:16:00;;;;;;;4.67;1.85;;;;;;;18.88;55.09;98846.23;1792242;78;20868;-59
2022/10/06 11:19:00;;;;;;;4.53;1.95;;;;;;;19.07;55.94;98849.38;1772046;80;20876;-59
2022/10/06 11:21:47;;;;;;;4.53;1.80;;;;;;;19.28;55.54;98853.52;1768322;79;21055;-57
2022/10/06 11:24:42;;;;;;;4.90;2.00;;;;;;;19.47;54.17;98850.42;1772617;81;21486;-58
2022/10/06 11:27:37;;;;;;;3.12;1.90;;;;;;;19.55;54.54;98850.92;1775477;77;21114;-59
2022/10/06 11:30:18;;;;;;;5.03;1.87;;;;;;;19.67;54.57;98844.23;1782741;78;21473;-56
2022/10/06 11:33:00;;;;;;;4.10;1.80;;;;;;;19.76;53.52;98843.61;1799697;77;20856;-58
2022/10/06 11:35:26;;;;;;;4.37;2.33;;;;;;;19.80;53.33;98845.92;1772278;79;21085;-56
2022/10/06 11:38:00;;;;;;;5.78;1.80;;;;;;;19.85;53.99;98855.25;1738134;82;21055;-56
2022/10/06 11:41:08;;;;;;;3.33;1.98;;;;;;;19.90;53.53;98854.26;1728054;82;21573;-56
2022/10/06 11:44:02;;;;;;;2.25;1.80;;;;;;;19.97;53.51;98855.33;1742794;82;21051;-56
2022/10/06 11:46:55;;;;;;;7.25;1.92;;;;;;;20.13;53.72;98858.25;1736498;81;21098;-56
2022/10/06 11:49:35;;;;;;;7.58;1.82;;;;;;;20.28;52.92;98858.46;1744942;81;21017;-56
2022/10/06 11:52:11;;;;;;;5.72;1.87;;;;;;;20.33;53.36;98858.27;1743392;81;20980;-56
2022/10/06 11:54:51;;;;;;;3.47;2.17;;;;;;;20.40;51.92;98864.52;1730943;82;21064;-55
2022/10/06 11:57:30;;;;;;;4.90;2.10;;;;;;;20.35;51.96;98863.36;1723691;82;21083;-56
2022/10/06 12:00:18;;;;;;;5.45;2.20;;;;;;;20.31;52.26;98868.69;1725173;82;20971;-57
2022/10/06 12:02:46;;;;;;;6.87;2.35;;;;;;;20.32;52.56;98855.89;1718166;82;21015;-57
2022/10/06 12:05:19;;;;;;;6.35;2.60;;;;;;;20.40;52.94;98859.88;1717263;82;21324;-59
2022/10/06 12:07:58;;;;;;;3.85;2.30;;;;;;;20.52;53.43;98858.34;1721229;82;21276;-57
2022/10/06 12:10:32;;;;;;;5.58;2.40;;;;;;;20.67;53.26;98859.09;1731445;81;20948;-57